sensor_id;sensor_type;location;lat;lon;timestamp;pressure;altitude;pressure_sealevel;temperature
61595;BMP280;47397;48.194;11.632;2022-09-27T00:00:06;94486.97;;;10.99
61595;BMP280;47397;48.194;11.632;2022-09-27T00:01:09;94481.34;;;10.92
61595;BMP280;47397;48.194;11.632;2022-09-27T00:02:11;94475.16;;;10.98
61595;BMP280;47397;48.194;11.632;2022-09-27T00:03:12;94468.28;;;11.00
61595;BMP280;47397;48.194;11.632;2022-09-27T00:04:12;94476.28;;;10.92
61595;BMP280;47397;48.194;11.632;2022-09-27T00:05:13;94468.28;;;11.00
61595;BMP280;47397;48.194;11.632;2022-09-27T00:06:18;94470.97;;;10.96
61595;BMP280;47397;48.194;11.632;2022-09-27T00:07:20;94468.81;;;10.70
61595;BMP280;47397;48.194;11.632;2022-09-27T00:08:20;94465.66;;;10.84
61595;BMP280;47397;48.194;11.632;2022-09-27T00:09:21;94466.25;;;10.89
61595;BMP280;47397;48.194;11.632;2022-09-27T00:10:21;94459.81;;;10.82
61595;BMP280;47397;48.194;11.632;2022-09-27T00:11:26;94465.75;;;10.63
61595;BMP280;47397;48.194;11.632;2022-09-27T00:12:27;94457.75;;;10.71
61595;BMP280;47397;48.194;11.632;2022-09-27T00:13:28;94461.47;;;10.83
61595;BMP280;47397;48.194;11.632;2022-09-27T00:14:28;94463.38;;;10.78
61595;BMP280;47397;48.194;11.632;2022-09-27T00:15:29;94465.56;;;10.85
61595;BMP280;47397;48.194;11.632;2022-09-27T00:16:31;94458.03;;;10.84
61595;BMP280;47397;48.194;11.632;2022-09-27T00:17:32;94457.44;;;10.79
61595;BMP280;47397;48.194;11.632;2022-09-27T00:18:33;94457.44;;;10.79
61595;BMP280;47397;48.194;11.632;2022-09-27T00:19:33;94451.72;;;10.74
61595;BMP280;47397;48.194;11.632;2022-09-27T00:20:34;94450.03;;;10.91
61595;BMP280;47397;48.194;11.632;2022-09-27T00:21:35;94447.56;;;10.90
61595;BMP280;47397;48.194;11.632;2022-09-27T00:22:36;94445.09;;;10.88
61595;BMP280;47397;48.194;11.632;2022-09-27T00:23:37;94446.88;;;10.86
61595;BMP280;47397;48.194;11.632;2022-09-27T00:24:37;94441.34;;;10.95
61595;BMP280;47397;48.194;11.632;2022-09-27T00:25:38;94440.09;;;10.87
61595;BMP280;47397;48.194;11.632;2022-09-27T00:26:40;94443.03;;;10.78
61595;BMP280;47397;48.194;11.632;2022-09-27T00:27:40;94449.72;;;10.80
61595;BMP280;47397;48.194;11.632;2022-09-27T00:28:41;94451.38;;;10.81
61595;BMP280;47397;48.194;11.632;2022-09-27T00:29:41;94447.91;;;10.65
61595;BMP280;47397;48.194;11.632;2022-09-27T00:30:42;94443.72;;;10.64
61595;BMP280;47397;48.194;11.632;2022-09-27T00:31:43;94446.09;;;10.67
61595;BMP280;47397;48.194;11.632;2022-09-27T00:32:44;94451.56;;;10.77
61595;BMP280;47397;48.194;11.632;2022-09-27T00:33:45;94456.78;;;10.74
61595;BMP280;47397;48.194;11.632;2022-09-27T00:34:46;94450.22;;;10.70
61595;BMP280;47397;48.194;11.632;2022-09-27T00:35:46;94460.00;;;10.77
61595;BMP280;47397;48.194;11.632;2022-09-27T00:36:47;94457.53;;;10.76
61595;BMP280;47397;48.194;11.632;2022-09-27T00:37:48;94460.72;;;10.81
61595;BMP280;47397;48.194;11.632;2022-09-27T00:38:49;94452.19;;;10.82
61595;BMP280;47397;48.194;11.632;2022-09-27T00:39:49;94458.88;;;10.65
61595;BMP280;47397;48.194;11.632;2022-09-27T00:40:50;94447.59;;;10.71
61595;BMP280;47397;48.194;11.632;2022-09-27T00:41:52;94455.06;;;10.57
61595;BMP280;47397;48.194;11.632;2022-09-27T00:42:53;94450.13;;;10.71
61595;BMP280;47397;48.194;11.632;2022-09-27T00:43:55;94449.31;;;10.71
61595;BMP280;47397;48.194;11.632;2022-09-27T00:45:03;94449.91;;;10.76
61595;BMP280;47397;48.194;11.632;2022-09-27T00:46:04;94454.75;;;10.46
61595;BMP280;47397;48.194;11.632;2022-09-27T00:47:08;94441.69;;;10.53
61595;BMP280;47397;48.194;11.632;2022-09-27T00:48:15;94438.91;;;10.41
61595;BMP280;47397;48.194;11.632;2022-09-27T00:49:21;94443.47;;;10.32
61595;BMP280;47397;48.194;11.632;2022-09-27T00:50:27;94436.84;;;10.30
61595;BMP280;47397;48.194;11.632;2022-09-27T00:51:31;94428.97;;;10.53
61595;BMP280;47397;48.194;11.632;2022-09-27T00:52:38;94428.00;;;10.56
61595;BMP280;47397;48.194;11.632;2022-09-27T00:53:43;94431.66;;;10.50
61595;BMP280;47397;48.194;11.632;2022-09-27T00:54:48;94430.50;;;10.39
61595;BMP280;47397;48.194;11.632;2022-09-27T00:55:52;94436.22;;;10.44
61595;BMP280;47397;48.194;11.632;2022-09-27T00:56:56;94429.72;;;10.55
61595;BMP280;47397;48.194;11.632;2022-09-27T00:57:57;94432.03;;;10.43
61595;BMP280;47397;48.194;11.632;2022-09-27T00:59:02;94435.13;;;10.30
61595;BMP280;47397;48.194;11.632;2022-09-27T01:00:08;94429.13;;;10.50
61595;BMP280;47397;48.194;11.632;2022-09-27T01:01:09;94438.47;;;10.50
61595;BMP280;47397;48.194;11.632;2022-09-27T01:02:10;94435.09;;;10.49
61595;BMP280;47397;48.194;11.632;2022-09-27T01:03:14;94432.72;;;10.46
61595;BMP280;47397;48.194;11.632;2022-09-27T01:04:17;94421.66;;;10.47
61595;BMP280;47397;48.194;11.632;2022-09-27T01:05:22;94432.66;;;10.29
61595;BMP280;47397;48.194;11.632;2022-09-27T01:06:24;94430.31;;;10.43
61595;BMP280;47397;48.194;11.632;2022-09-27T01:07:24;94427.97;;;10.39
61595;BMP280;47397;48.194;11.632;2022-09-27T01:08:25;94430.38;;;10.42
61595;BMP280;47397;48.194;11.632;2022-09-27T01:09:26;94428.75;;;10.41
61595;BMP280;47397;48.194;11.632;2022-09-27T01:10:31;94423.16;;;10.51
61595;BMP280;47397;48.194;11.632;2022-09-27T01:11:41;94426.91;;;10.61
61595;BMP280;47397;48.194;11.632;2022-09-27T01:12:57;94432.88;;;10.60
61595;BMP280;47397;48.194;11.632;2022-09-27T01:14:17;94426.38;;;10.55
61595;BMP280;47397;48.194;11.632;2022-09-27T01:15:25;94430.31;;;10.43
61595;BMP280;47397;48.194;11.632;2022-09-27T01:16:34;94428.84;;;10.56
61595;BMP280;47397;48.194;11.632;2022-09-27T01:17:44;94425.53;;;10.54
61595;BMP280;47397;48.194;11.632;2022-09-27T01:19:00;94423.97;;;10.52
61595;BMP280;47397;48.194;11.632;2022-09-27T01:20:45;94423.59;;;10.59
61595;BMP280;47397;48.194;11.632;2022-09-27T01:21:56;94419.13;;;10.64
61595;BMP280;47397;48.194;11.632;2022-09-27T01:23:11;94417.13;;;10.35
61595;BMP280;47397;48.194;11.632;2022-09-27T01:24:26;94415.19;;;10.40
61595;BMP280;47397;48.194;11.632;2022-09-27T01:25:45;94413.97;;;10.30
61595;BMP280;47397;48.194;11.632;2022-09-27T01:27:30;94407.94;;;10.32
61595;BMP280;47397;48.194;11.632;2022-09-27T01:28:46;94404.16;;;10.41
61595;BMP280;47397;48.194;11.632;2022-09-27T01:30:11;94400.03;;;10.39
61595;BMP280;47397;48.194;11.632;2022-09-27T01:31:19;94407.63;;;10.21
61595;BMP280;47397;48.194;11.632;2022-09-27T01:32:29;94402.09;;;10.30
61595;BMP280;47397;48.194;11.632;2022-09-27T01:33:42;94399.84;;;10.43
61595;BMP280;47397;48.194;11.632;2022-09-27T01:34:47;94403.91;;;10.28
61595;BMP280;47397;48.194;11.632;2022-09-27T01:36:04;94400.72;;;10.42
61595;BMP280;47397;48.194;11.632;2022-09-27T01:37:12;94398.66;;;10.50
61595;BMP280;47397;48.194;11.632;2022-09-27T01:38:24;94395.38;;;10.48
61595;BMP280;47397;48.194;11.632;2022-09-27T01:39:35;94391.25;;;10.46
61595;BMP280;47397;48.194;11.632;2022-09-27T01:40:40;94391.13;;;10.11
61595;BMP280;47397;48.194;11.632;2022-09-27T01:41:47;94391.59;;;10.19
61595;BMP280;47397;48.194;11.632;2022-09-27T01:42:54;94387.69;;;10.31
61595;BMP280;47397;48.194;11.632;2022-09-27T01:44:01;94390.69;;;10.39
61595;BMP280;47397;48.194;11.632;2022-09-27T01:45:08;94385.09;;;10.32
61595;BMP280;47397;48.194;11.632;2022-09-27T01:46:16;94390.28;;;10.48
61595;BMP280;47397;48.194;11.632;2022-09-27T01:47:20;94398.56;;;10.52
61595;BMP280;47397;48.194;11.632;2022-09-27T01:48:22;94394.53;;;10.48
61595;BMP280;47397;48.194;11.632;2022-09-27T01:49:29;94392.81;;;10.48
61595;BMP280;47397;48.194;11.632;2022-09-27T01:50:35;94391.66;;;10.37
61595;BMP280;47397;48.194;11.632;2022-09-27T01:51:41;94391.94;;;10.49
61595;BMP280;47397;48.194;11.632;2022-09-27T01:52:47;94386.09;;;10.47
61595;BMP280;47397;48.194;11.632;2022-09-27T01:53:52;94390.69;;;10.39
61595;BMP280;47397;48.194;11.632;2022-09-27T01:54:55;94390.97;;;10.33
61595;BMP280;47397;48.194;11.632;2022-09-27T01:56:01;94391.13;;;10.11
61595;BMP280;47397;48.194;11.632;2022-09-27T01:57:04;94394.22;;;10.18
61595;BMP280;47397;48.194;11.632;2022-09-27T01:58:10;94385.91;;;10.33
61595;BMP280;47397;48.194;11.632;2022-09-27T01:59:14;94388.44;;;10.33
61595;BMP280;47397;48.194;11.632;2022-09-27T02:00:15;94384.44;;;10.46
61595;BMP280;47397;48.194;11.632;2022-09-27T02:01:18;94388.44;;;10.33
61595;BMP280;47397;48.194;11.632;2022-09-27T02:02:22;94389.88;;;10.39
61595;BMP280;47397;48.194;11.632;2022-09-27T02:03:25;94385.50;;;10.42
61595;BMP280;47397;48.194;11.632;2022-09-27T02:04:31;94384.22;;;10.15
61595;BMP280;47397;48.194;11.632;2022-09-27T02:05:36;94378.78;;;10.22
61595;BMP280;47397;48.194;11.632;2022-09-27T02:06:42;94371.63;;;10.30
61595;BMP280;47397;48.194;11.632;2022-09-27T02:07:48;94375.75;;;10.33
61595;BMP280;47397;48.194;11.632;2022-09-27T02:08:54;94376.19;;;10.24
61595;BMP280;47397;48.194;11.632;2022-09-27T02:09:58;94377.91;;;10.05
61595;BMP280;47397;48.194;11.632;2022-09-27T02:11:04;94378.97;;;10.18
61595;BMP280;47397;48.194;11.632;2022-09-27T02:12:09;94369.91;;;10.31
61595;BMP280;47397;48.194;11.632;2022-09-27T02:13:16;94375.44;;;10.22
61595;BMP280;47397;48.194;11.632;2022-09-27T02:14:21;94369.38;;;10.24
61595;BMP280;47397;48.194;11.632;2022-09-27T02:15:25;94364.66;;;10.17
61595;BMP280;47397;48.194;11.632;2022-09-27T02:16:35;94364.50;;;10.20
61595;BMP280;47397;48.194;11.632;2022-09-27T02:17:43;94373.44;;;10.28
61595;BMP280;47397;48.194;11.632;2022-09-27T02:18:54;94368.91;;;10.16
61595;BMP280;47397;48.194;11.632;2022-09-27T02:20:02;94371.72;;;10.29
61595;BMP280;47397;48.194;11.632;2022-09-27T02:21:09;94379.63;;;10.40
61595;BMP280;47397;48.194;11.632;2022-09-27T02:22:15;94373.63;;;10.43
61595;BMP280;47397;48.194;11.632;2022-09-27T02:23:21;94374.25;;;10.29
61595;BMP280;47397;48.194;11.632;2022-09-27T02:24:29;94379.63;;;10.23
61595;BMP280;47397;48.194;11.632;2022-09-27T02:25:37;94380.69;;;10.36
61595;BMP280;47397;48.194;11.632;2022-09-27T02:26:42;94382.00;;;10.26
61595;BMP280;47397;48.194;11.632;2022-09-27T02:27:52;94376.78;;;10.29
61595;BMP280;47397;48.194;11.632;2022-09-27T02:28:57;94382.63;;;10.31
61595;BMP280;47397;48.194;11.632;2022-09-27T02:30:03;94382.25;;;10.39
61595;BMP280;47397;48.194;11.632;2022-09-27T02:31:05;94379.78;;;10.37
61595;BMP280;47397;48.194;11.632;2022-09-27T02:32:08;94380.75;;;10.34
61595;BMP280;47397;48.194;11.632;2022-09-27T02:33:09;94382.31;;;10.37
61595;BMP280;47397;48.194;11.632;2022-09-27T02:34:14;94372.81;;;10.42
61595;BMP280;47397;48.194;11.632;2022-09-27T02:35:18;94372.88;;;10.41
61595;BMP280;47397;48.194;11.632;2022-09-27T02:36:20;94373.53;;;10.44
61595;BMP280;47397;48.194;11.632;2022-09-27T02:37:21;94373.31;;;10.49
61595;BMP280;47397;48.194;11.632;2022-09-27T02:38:22;94366.53;;;10.49
61595;BMP280;47397;48.194;11.632;2022-09-27T02:39:23;94365.84;;;10.46
61595;BMP280;47397;48.194;11.632;2022-09-27T02:40:29;94374.03;;;10.33
61595;BMP280;47397;48.194;11.632;2022-09-27T02:41:31;94373.00;;;10.19
61595;BMP280;47397;48.194;11.632;2022-09-27T02:42:32;94375.91;;;10.30
61595;BMP280;47397;48.194;11.632;2022-09-27T02:43:34;94375.34;;;10.42
61595;BMP280;47397;48.194;11.632;2022-09-27T02:44:35;94375.00;;;10.31
61595;BMP280;47397;48.194;11.632;2022-09-27T02:45:47;94372.66;;;10.45
61595;BMP280;47397;48.194;11.632;2022-09-27T02:48:27;94357.00;;;10.36
61595;BMP280;47397;48.194;11.632;2022-09-27T02:49:56;94345.94;;;10.37
61595;BMP280;47397;48.194;11.632;2022-09-27T02:51:21;94359.00;;;10.29
61595;BMP280;47397;48.194;11.632;2022-09-27T02:52:31;94354.31;;;10.39
61595;BMP280;47397;48.194;11.632;2022-09-27T02:53:42;94352.44;;;10.25
61595;BMP280;47397;48.194;11.632;2022-09-27T02:54:52;94353.72;;;10.33
61595;BMP280;47397;48.194;11.632;2022-09-27T02:56:01;94357.22;;;10.31
61595;BMP280;47397;48.194;11.632;2022-09-27T02:57:12;94362.22;;;10.32
61595;BMP280;47397;48.194;11.632;2022-09-27T02:58:25;94346.63;;;10.23
61595;BMP280;47397;48.194;11.632;2022-09-27T02:59:34;94352.03;;;9.96
61595;BMP280;47397;48.194;11.632;2022-09-27T03:00:45;94350.31;;;10.16
61595;BMP280;47397;48.194;11.632;2022-09-27T03:01:52;94341.66;;;10.01
61595;BMP280;47397;48.194;11.632;2022-09-27T03:03:02;94334.19;;;10.17
61595;BMP280;47397;48.194;11.632;2022-09-27T03:04:10;94330.19;;;10.30
61595;BMP280;47397;48.194;11.632;2022-09-27T03:05:17;94333.59;;;10.12
61595;BMP280;47397;48.194;11.632;2022-09-27T03:06:20;94334.94;;;10.19
61595;BMP280;47397;48.194;11.632;2022-09-27T03:07:21;94335.16;;;10.14
61595;BMP280;47397;48.194;11.632;2022-09-27T03:08:23;94335.09;;;10.16
61595;BMP280;47397;48.194;11.632;2022-09-27T03:09:28;94337.06;;;10.28
61595;BMP280;47397;48.194;11.632;2022-09-27T03:10:29;94331.75;;;10.32
61595;BMP280;47397;48.194;11.632;2022-09-27T03:11:29;94325.88;;;10.32
61595;BMP280;47397;48.194;11.632;2022-09-27T03:12:30;94321.53;;;10.34
61595;BMP280;47397;48.194;11.632;2022-09-27T03:13:31;94330.06;;;10.14
61595;BMP280;47397;48.194;11.632;2022-09-27T03:14:32;94326.16;;;10.26
61595;BMP280;47397;48.194;11.632;2022-09-27T03:15:32;94318.84;;;10.37
61595;BMP280;47397;48.194;11.632;2022-09-27T03:16:33;94322.91;;;10.41
61595;BMP280;47397;48.194;11.632;2022-09-27T03:17:33;94321.53;;;10.34
61595;BMP280;47397;48.194;11.632;2022-09-27T03:18:34;94326.63;;;10.34
61595;BMP280;47397;48.194;11.632;2022-09-27T03:19:36;94324.03;;;10.17
61595;BMP280;47397;48.194;11.632;2022-09-27T03:20:37;94322.78;;;10.25
61595;BMP280;47397;48.194;11.632;2022-09-27T03:21:38;94327.50;;;10.33
61595;BMP280;47397;48.194;11.632;2022-09-27T03:22:39;94322.72;;;10.27
61595;BMP280;47397;48.194;11.632;2022-09-27T03:23:39;94318.47;;;10.27
61595;BMP280;47397;48.194;11.632;2022-09-27T03:24:40;94320.38;;;10.41
61595;BMP280;47397;48.194;11.632;2022-09-27T03:25:40;94318.16;;;10.33
61595;BMP280;47397;48.194;11.632;2022-09-27T03:26:41;94319.38;;;10.26
61595;BMP280;47397;48.194;11.632;2022-09-27T03:27:43;94316.75;;;10.28
61595;BMP280;47397;48.194;11.632;2022-09-27T03:28:43;94322.69;;;10.10
61595;BMP280;47397;48.194;11.632;2022-09-27T03:29:44;94314.78;;;10.16
61595;BMP280;47397;48.194;11.632;2022-09-27T03:30:45;94319.50;;;10.23
61595;BMP280;47397;48.194;11.632;2022-09-27T03:31:46;94314.22;;;10.28
61595;BMP280;47397;48.194;11.632;2022-09-27T03:32:46;94313.31;;;10.29
61595;BMP280;47397;48.194;11.632;2022-09-27T03:33:47;94307.88;;;10.37
61595;BMP280;47397;48.194;11.632;2022-09-27T03:34:49;94310.56;;;10.33
61595;BMP280;47397;48.194;11.632;2022-09-27T03:35:50;94308.25;;;10.29
61595;BMP280;47397;48.194;11.632;2022-09-27T03:36:51;94308.84;;;10.34
61595;BMP280;47397;48.194;11.632;2022-09-27T03:37:51;94309.44;;;10.22
61595;BMP280;47397;48.194;11.632;2022-09-27T03:38:52;94306.38;;;10.32
61595;BMP280;47397;48.194;11.632;2022-09-27T03:39:52;94309.59;;;10.36
61595;BMP280;47397;48.194;11.632;2022-09-27T03:40:53;94303.69;;;10.36
61595;BMP280;47397;48.194;11.632;2022-09-27T03:41:53;94294.34;;;10.36
61595;BMP280;47397;48.194;11.632;2022-09-27T03:42:54;94301.38;;;10.31
61595;BMP280;47397;48.194;11.632;2022-09-27T03:43:54;94304.81;;;10.30
61595;BMP280;47397;48.194;11.632;2022-09-27T03:44:55;94307.13;;;10.34
61595;BMP280;47397;48.194;11.632;2022-09-27T03:45:55;94301.06;;;10.37
61595;BMP280;47397;48.194;11.632;2022-09-27T03:46:56;94301.22;;;10.34
61595;BMP280;47397;48.194;11.632;2022-09-27T03:47:56;94299.81;;;10.28
61595;BMP280;47397;48.194;11.632;2022-09-27T03:48:57;94297.50;;;10.24
61595;BMP280;47397;48.194;11.632;2022-09-27T03:49:59;94298.66;;;10.17
61595;BMP280;47397;48.194;11.632;2022-09-27T03:50:59;94299.50;;;9.98
61595;BMP280;47397;48.194;11.632;2022-09-27T03:52:00;94296.94;;;10.17
61595;BMP280;47397;48.194;11.632;2022-09-27T03:53:01;94301.22;;;10.34
61595;BMP280;47397;48.194;11.632;2022-09-27T03:54:01;94298.69;;;10.34
61595;BMP280;47397;48.194;11.632;2022-09-27T03:55:02;94291.81;;;10.36
61595;BMP280;47397;48.194;11.632;2022-09-27T03:56:03;94297.13;;;10.31
61595;BMP280;47397;48.194;11.632;2022-09-27T03:57:04;94290.09;;;10.37
61595;BMP280;47397;48.194;11.632;2022-09-27T03:58:05;94284.13;;;10.38
61595;BMP280;47397;48.194;11.632;2022-09-27T03:59:05;94289.91;;;10.41
61595;BMP280;47397;48.194;11.632;2022-09-27T04:00:07;94291.31;;;10.47
61595;BMP280;47397;48.194;11.632;2022-09-27T04:01:08;94287.94;;;10.46
61595;BMP280;47397;48.194;11.632;2022-09-27T04:02:09;94292.13;;;10.47
61595;BMP280;47397;48.194;11.632;2022-09-27T04:03:09;94286.47;;;10.42
61595;BMP280;47397;48.194;11.632;2022-09-27T04:04:10;94282.28;;;10.41
61595;BMP280;47397;48.194;11.632;2022-09-27T04:05:12;94295.84;;;10.40
61595;BMP280;47397;48.194;11.632;2022-09-27T04:06:12;94288.09;;;10.43
61595;BMP280;47397;48.194;11.632;2022-09-27T04:07:13;94285.47;;;10.27
61595;BMP280;47397;48.194;11.632;2022-09-27T04:08:13;94287.91;;;10.12
61595;BMP280;47397;48.194;11.632;2022-09-27T04:09:14;94280.81;;;10.18
61595;BMP280;47397;48.194;11.632;2022-09-27T04:10:15;94286.50;;;10.23
61595;BMP280;47397;48.194;11.632;2022-09-27T04:11:16;94289.06;;;10.23
61595;BMP280;47397;48.194;11.632;2022-09-27T04:12:16;94278.28;;;10.18
61595;BMP280;47397;48.194;11.632;2022-09-27T04:13:16;94283.81;;;10.26
61595;BMP280;47397;48.194;11.632;2022-09-27T04:14:17;94279.63;;;10.25
61595;BMP280;47397;48.194;11.632;2022-09-27T04:15:18;94287.25;;;10.25
61595;BMP280;47397;48.194;11.632;2022-09-27T04:16:18;94280.16;;;10.32
61595;BMP280;47397;48.194;11.632;2022-09-27T04:17:19;94283.50;;;10.15
61595;BMP280;47397;48.194;11.632;2022-09-27T04:18:20;94286.44;;;10.25
61595;BMP280;47397;48.194;11.632;2022-09-27T04:19:20;94287.59;;;10.18
61595;BMP280;47397;48.194;11.632;2022-09-27T04:20:24;94286.84;;;10.16
61595;BMP280;47397;48.194;11.632;2022-09-27T04:21:25;94287.69;;;10.16
61595;BMP280;47397;48.194;11.632;2022-09-27T04:22:26;94291.22;;;10.31
61595;BMP280;47397;48.194;11.632;2022-09-27T04:23:26;94291.22;;;10.31
61595;BMP280;47397;48.194;11.632;2022-09-27T04:24:27;94283.59;;;10.31
61595;BMP280;47397;48.194;11.632;2022-09-27T04:25:27;94284.94;;;10.21
61595;BMP280;47397;48.194;11.632;2022-09-27T04:26:28;94280.53;;;10.24
61595;BMP280;47397;48.194;11.632;2022-09-27T04:27:29;94284.75;;;10.07
61595;BMP280;47397;48.194;11.632;2022-09-27T04:28:29;94282.59;;;10.16
61595;BMP280;47397;48.194;11.632;2022-09-27T04:29:30;94293.50;;;10.18
61595;BMP280;47397;48.194;11.632;2022-09-27T04:30:31;94295.22;;;10.18
61595;BMP280;47397;48.194;11.632;2022-09-27T04:31:32;94299.88;;;10.27
61595;BMP280;47397;48.194;11.632;2022-09-27T04:32:33;94294.13;;;10.23
61595;BMP280;47397;48.194;11.632;2022-09-27T04:33:34;94283.97;;;10.23
61595;BMP280;47397;48.194;11.632;2022-09-27T04:34:35;94291.75;;;10.20
61595;BMP280;47397;48.194;11.632;2022-09-27T04:35:39;94289.41;;;10.33
61595;BMP280;47397;48.194;11.632;2022-09-27T04:36:41;94290.16;;;10.35
61595;BMP280;47397;48.194;11.632;2022-09-27T04:37:43;94292.78;;;10.33
61595;BMP280;47397;48.194;11.632;2022-09-27T04:38:44;94292.84;;;10.32
61595;BMP280;47397;48.194;11.632;2022-09-27T04:39:45;94298.09;;;10.29
61595;BMP280;47397;48.194;11.632;2022-09-27T04:40:46;94292.19;;;10.28
61595;BMP280;47397;48.194;11.632;2022-09-27T04:41:46;94287.03;;;10.30
61595;BMP280;47397;48.194;11.632;2022-09-27T04:42:47;94294.19;;;10.22
61595;BMP280;47397;48.194;11.632;2022-09-27T04:43:48;94289.88;;;10.24
61595;BMP280;47397;48.194;11.632;2022-09-27T04:44:48;94290.25;;;10.33
61595;BMP280;47397;48.194;11.632;2022-09-27T04:45:49;94293.38;;;10.21
61595;BMP280;47397;48.194;11.632;2022-09-27T04:46:50;94290.50;;;10.10
61595;BMP280;47397;48.194;11.632;2022-09-27T04:47:52;94287.44;;;10.03
61595;BMP280;47397;48.194;11.632;2022-09-27T04:48:52;94295.66;;;10.09
61595;BMP280;47397;48.194;11.632;2022-09-27T04:49:53;94292.75;;;10.16
61595;BMP280;47397;48.194;11.632;2022-09-27T04:51:01;94295.91;;;10.02
61595;BMP280;47397;48.194;11.632;2022-09-27T04:52:01;94295.06;;;10.03
61595;BMP280;47397;48.194;11.632;2022-09-27T04:53:03;94292.44;;;10.05
61595;BMP280;47397;48.194;11.632;2022-09-27T04:54:03;94295.66;;;10.09
61595;BMP280;47397;48.194;11.632;2022-09-27T04:55:05;94296.09;;;10.17
61595;BMP280;47397;48.194;11.632;2022-09-27T04:56:07;94294.75;;;10.10
61595;BMP280;47397;48.194;11.632;2022-09-27T04:57:08;94297.91;;;10.15
61595;BMP280;47397;48.194;11.632;2022-09-27T04:58:09;94300.59;;;10.12
61595;BMP280;47397;48.194;11.632;2022-09-27T04:59:10;94310.22;;;10.05
61595;BMP280;47397;48.194;11.632;2022-09-27T05:00:12;94309.38;;;10.05
61595;BMP280;47397;48.194;11.632;2022-09-27T05:01:13;94307.69;;;10.05
61595;BMP280;47397;48.194;11.632;2022-09-27T05:02:14;94313.22;;;9.94
61595;BMP280;47397;48.194;11.632;2022-09-27T05:03:15;94311.66;;;9.92
61595;BMP280;47397;48.194;11.632;2022-09-27T05:04:15;94315.63;;;9.97
61595;BMP280;47397;48.194;11.632;2022-09-27T05:05:16;94319.31;;;10.09
61595;BMP280;47397;48.194;11.632;2022-09-27T05:06:18;94311.63;;;10.11
61595;BMP280;47397;48.194;11.632;2022-09-27T05:07:19;94320.22;;;10.08
61595;BMP280;47397;48.194;11.632;2022-09-27T05:08:19;94322.59;;;10.11
61595;BMP280;47397;48.194;11.632;2022-09-27T05:09:20;94315.97;;;10.09
61595;BMP280;47397;48.194;11.632;2022-09-27T05:10:21;94318.34;;;10.12
61595;BMP280;47397;48.194;11.632;2022-09-27T05:11:22;94312.69;;;10.07
61595;BMP280;47397;48.194;11.632;2022-09-27T05:12:23;94320.75;;;10.15
61595;BMP280;47397;48.194;11.632;2022-09-27T05:13:23;94318.34;;;10.12
61595;BMP280;47397;48.194;11.632;2022-09-27T05:14:24;94317.47;;;10.13
61595;BMP280;47397;48.194;11.632;2022-09-27T05:15:26;94311.28;;;9.99
61595;BMP280;47397;48.194;11.632;2022-09-27T05:16:26;94313.75;;;10.01
61595;BMP280;47397;48.194;11.632;2022-09-27T05:17:27;94315.28;;;10.05
61595;BMP280;47397;48.194;11.632;2022-09-27T05:18:28;94323.34;;;10.13
61595;BMP280;47397;48.194;11.632;2022-09-27T05:19:33;94313.34;;;10.10
61595;BMP280;47397;48.194;11.632;2022-09-27T05:20:35;94317.53;;;10.11
61595;BMP280;47397;48.194;11.632;2022-09-27T05:21:38;94323.72;;;10.06
61595;BMP280;47397;48.194;11.632;2022-09-27T05:22:40;94318.50;;;10.09
61595;BMP280;47397;48.194;11.632;2022-09-27T05:23:42;94325.16;;;10.11
61595;BMP280;47397;48.194;11.632;2022-09-27T05:24:43;94325.81;;;10.15
61595;BMP280;47397;48.194;11.632;2022-09-27T05:25:44;94330.00;;;10.16
61595;BMP280;47397;48.194;11.632;2022-09-27T05:26:46;94326.56;;;10.17
61595;BMP280;47397;48.194;11.632;2022-09-27T05:27:48;94335.31;;;10.11
61595;BMP280;47397;48.194;11.632;2022-09-27T05:28:49;94340.38;;;10.11
61595;BMP280;47397;48.194;11.632;2022-09-27T05:29:50;94332.09;;;10.08
61595;BMP280;47397;48.194;11.632;2022-09-27T05:30:51;94335.72;;;10.02
61595;BMP280;47397;48.194;11.632;2022-09-27T05:31:53;94333.66;;;10.10
61595;BMP280;47397;48.194;11.632;2022-09-27T05:32:54;94332.63;;;10.14
61595;BMP280;47397;48.194;11.632;2022-09-27T05:33:55;94331.56;;;10.18
61595;BMP280;47397;48.194;11.632;2022-09-27T05:34:55;94330.91;;;10.15
61595;BMP280;47397;48.194;11.632;2022-09-27T05:35:56;94331.44;;;10.02
61595;BMP280;47397;48.194;11.632;2022-09-27T05:36:58;94328.50;;;10.12
61595;BMP280;47397;48.194;11.632;2022-09-27T05:37:59;94327.75;;;10.10
61595;BMP280;47397;48.194;11.632;2022-09-27T05:39:00;94328.72;;;10.07
61595;BMP280;47397;48.194;11.632;2022-09-27T05:40:02;94334.69;;;10.06
61595;BMP280;47397;48.194;11.632;2022-09-27T05:41:03;94331.19;;;10.09
61595;BMP280;47397;48.194;11.632;2022-09-27T05:42:05;94331.13;;;10.10
61595;BMP280;47397;48.194;11.632;2022-09-27T05:43:07;94330.28;;;10.10
61595;BMP280;47397;48.194;11.632;2022-09-27T05:44:09;94332.69;;;10.13
61595;BMP280;47397;48.194;11.632;2022-09-27T05:45:10;94338.72;;;10.10
61595;BMP280;47397;48.194;11.632;2022-09-27T05:46:10;94340.16;;;10.16
61595;BMP280;47397;48.194;11.632;2022-09-27T05:47:11;94340.22;;;10.14
61595;BMP280;47397;48.194;11.632;2022-09-27T05:48:12;94343.88;;;10.09
61595;BMP280;47397;48.194;11.632;2022-09-27T05:49:13;94345.84;;;10.02
61595;BMP280;47397;48.194;11.632;2022-09-27T05:50:14;94343.22;;;10.05
61595;BMP280;47397;48.194;11.632;2022-09-27T05:51:15;94343.22;;;10.05
61595;BMP280;47397;48.194;11.632;2022-09-27T05:52:17;94350.47;;;10.13
61595;BMP280;47397;48.194;11.632;2022-09-27T05:53:18;94350.38;;;10.14
61595;BMP280;47397;48.194;11.632;2022-09-27T05:54:19;94346.50;;;10.07
61595;BMP280;47397;48.194;11.632;2022-09-27T05:55:20;94352.47;;;10.06
61595;BMP280;47397;48.194;11.632;2022-09-27T05:56:21;94352.91;;;10.14
61595;BMP280;47397;48.194;11.632;2022-09-27T05:57:21;94354.84;;;10.09
61595;BMP280;47397;48.194;11.632;2022-09-27T05:58:22;94356.44;;;10.12
61595;BMP280;47397;48.194;11.632;2022-09-27T05:59:23;94354.78;;;10.11
61595;BMP280;47397;48.194;11.632;2022-09-27T06:00:24;94357.25;;;10.12
61595;BMP280;47397;48.194;11.632;2022-09-27T06:01:24;94365.84;;;10.10